Time;durP1;ratioP1;P1;durP2;ratioP2;P2;SDS_P1;SDS_P2;PMS_P1;PMS_P2;Temp;Humidity;BMP_temperature;BMP_pressure;BME280_temperature;BME280_humidity;BME280_pressure;Samples;Min_cycle;Max_cycle;Signal;HPM_P1;HPM_P2
2023/12/26 00:04:23;;;;;;;16.42;2.63;;;10.60;99.90;;;;;;10551174;27;20158;-71
2023/12/26 00:09:25;;;;;;;7.78;1.27;;;10.70;99.90;;;;;;10553532;27;20043;-71
2023/12/26 00:14:27;;;;;;;0.20;0.20;;;10.60;99.90;;;;;;10549297;27;20055;-71
2023/12/26 00:19:31;;;;;;;0.50;0.50;;;10.70;99.90;;;;;;10549150;27;20058;-71
2023/12/26 00:24:33;;;;;;;0.10;0.10;;;10.70;99.90;;;;;;10548206;27;20639;-71
2023/12/26 00:29:37;;;;;;;6.93;2.07;;;10.70;99.90;;;;;;10545230;27;20295;-71
2023/12/26 00:34:43;;;;;;;1.73;1.45;;;10.80;99.90;;;;;;10544813;27;20059;-71
2023/12/26 00:39:45;;;;;;;0.30;0.30;;;10.70;99.90;;;;;;10537597;27;20070;-72
2023/12/26 00:44:47;;;;;;;0.08;0.08;;;10.80;99.90;;;;;;10543836;27;20083;-71
2023/12/26 00:49:55;;;;;;;8.80;1.08;;;10.70;99.90;;;;;;10539488;27;20054;-71
2023/12/26 00:54:59;;;;;;;0.10;0.10;;;10.70;99.90;;;;;;10543043;27;20497;-72
2023/12/26 01:00:03;;;;;;;2.60;2.40;;;10.60;99.90;;;;;;10545467;27;20060;-71
2023/12/26 01:05:08;;;;;;;0.20;0.20;;;10.60;99.90;;;;;;10548050;27;20047;-70
2023/12/26 01:10:12;;;;;;;0.10;0.10;;;10.60;99.90;;;;;;10553485;27;20043;-71
2023/12/26 01:15:14;;;;;;;0.10;0.10;;;10.70;99.90;;;;;;10544620;27;20062;-70
2023/12/26 01:20:18;;;;;;;35.77;5.03;;;10.60;99.90;;;;;;10550606;27;20074;-70
2023/12/26 01:25:20;;;;;;;44.63;5.18;;;10.70;99.90;;;;;;10549128;27;20066;-71
2023/12/26 01:30:22;;;;;;;41.90;6.25;;;10.60;99.90;;;;;;10546936;27;20039;-72
2023/12/26 01:35:26;;;;;;;43.03;5.65;;;10.60;99.90;;;;;;10545706;27;20099;-71
2023/12/26 01:40:29;;;;;;;39.60;5.47;;;10.60;99.90;;;;;;10544808;27;20074;-70
2023/12/26 01:45:32;;;;;;;27.58;4.72;;;10.60;99.90;;;;;;10550194;27;20059;-71
2023/12/26 01:50:36;;;;;;;22.92;3.78;;;10.50;99.90;;;;;;10542853;27;20083;-71
2023/12/26 01:55:39;;;;;;;14.20;2.83;;;10.60;99.90;;;;;;10545017;27;20054;-71
2023/12/26 02:00:42;;;;;;;26.65;4.47;;;10.60;99.90;;;;;;10541366;27;20046;-71
2023/12/26 02:05:47;;;;;;;18.50;2.88;;;10.50;99.90;;;;;;10541617;27;20804;-70
2023/12/26 02:10:49;;;;;;;22.33;3.25;;;10.40;99.90;;;;;;10531218;27;20113;-70
2023/12/26 02:15:58;;;;;;;23.05;3.00;;;10.40;99.90;;;;;;10542977;27;20040;-69
2023/12/26 02:21:01;;;;;;;29.00;2.53;;;10.40;99.90;;;;;;10542443;27;20131;-70
2023/12/26 02:26:06;;;;;;;26.45;4.15;;;10.30;99.90;;;;;;10537153;28;20074;-71
2023/12/26 02:31:09;;;;;;;17.83;2.92;;;10.20;99.90;;;;;;10541598;28;20047;-70
2023/12/26 02:36:11;;;;;;;20.50;2.45;;;10.10;99.90;;;;;;10540146;28;20173;-71
2023/12/26 02:41:15;;;;;;;33.33;4.17;;;10.30;99.90;;;;;;10540674;28;20859;-71
2023/12/26 02:46:17;;;;;;;22.08;4.40;;;10.10;99.90;;;;;;10542094;27;20067;-72
2023/12/26 02:51:20;;;;;;;35.50;3.03;;;10.20;99.90;;;;;;10542751;27;20102;-71
2023/12/26 02:56:23;;;;;;;13.55;2.35;;;10.10;99.90;;;;;;10554178;27;20048;-71
2023/12/26 03:01:25;;;;;;;17.90;3.25;;;10.10;99.90;;;;;;10557561;27;20032;-71
2023/12/26 03:06:27;;;;;;;18.13;2.90;;;9.90;99.90;;;;;;10552230;27;20051;-71
2023/12/26 03:11:31;;;;;;;19.63;2.80;;;10.00;99.90;;;;;;10555178;27;20396;-72
2023/12/26 03:16:33;;;;;;;14.88;3.10;;;9.80;99.90;;;;;;10556020;27;20048;-69
2023/12/26 03:21:36;;;;;;;16.07;3.17;;;9.70;99.90;;;;;;10549924;27;20140;-70
2023/12/26 03:26:42;;;;;;;17.75;3.30;;;9.60;99.90;;;;;;10558113;27;20060;-70
2023/12/26 03:31:45;;;;;;;17.35;2.60;;;9.50;99.90;;;;;;10554436;27;20043;-71
2023/12/26 03:36:48;;;;;;;15.32;2.20;;;9.50;99.90;;;;;;10543191;27;20091;-70
2023/12/26 03:41:52;;;;;;;8.63;1.73;;;9.30;99.90;;;;;;10550268;27;20838;-70
2023/12/26 03:46:54;;;;;;;25.42;4.68;;;9.40;99.90;;;;;;10552817;27;20052;-70
2023/12/26 03:51:57;;;;;;;24.27;2.75;;;9.30;99.90;;;;;;10539252;27;20436;-71
2023/12/26 03:57:02;;;;;;;14.50;2.58;;;9.20;99.90;;;;;;10551154;27;20201;-70
2023/12/26 04:02:05;;;;;;;22.02;3.13;;;9.20;99.90;;;;;;10547811;27;20047;-70
2023/12/26 04:07:09;;;;;;;23.73;2.87;;;9.10;99.90;;;;;;10557475;27;20296;-70
